This is the latest recevied weather packets stored in our database for station/object KC3DGM. If no packets are shown the sender has not sent any weather packets the latest 10 day(s).
| Time | Temp. | Humidity | Pressure | Rain* | Wind** | Luminosity | Snow |
|---|---|---|---|---|---|---|---|
| 1777964043 | 15.56° C | 76% | 976.3 hPa | 0 mm | - | 0 W/m² | - |
| 1777963740 | 16.11° C | 75% | 976.1 hPa | 0 mm | - | 0 W/m² | - |
| 1777963437 | 16.11° C | 75% | 976.4 hPa | 0 mm | - | 0 W/m² | - |
| 1777963135 | 16.11° C | 75% | 976.4 hPa | 0 mm | - | 0 W/m² | - |
| 1777962836 | 16.11° C | 75% | 976.3 hPa | 0 mm | - | 0 W/m² | - |
| 1777962533 | 15° C | 81% | 976.8 hPa | 0 mm | - | 0 W/m² | - |
| 1777962230 | 15° C | 81% | 976.6 hPa | 0 mm | - | 0 W/m² | - |
| 1777961927 | 15.56° C | 79% | 976.8 hPa | 0 mm | - | 0 W/m² | - |
| 1777961625 | 16.11° C | 78% | 976.8 hPa | 0 mm | - | 0 W/m² | - |
| 1777961322 | 16.67° C | 76% | 976.9 hPa | 0 mm | - | 0 W/m² | - |
| 1777961019 | 17.22° C | 73% | 977.2 hPa | 0 mm | - | 0 W/m² | - |
| 1777960715 | 17.78° C | 72% | 977.2 hPa | 0 mm | - | 0 W/m² | - |
| 1777960411 | 17.78° C | 70% | 976.9 hPa | 0 mm | - | 0 W/m² | - |
| 1777960108 | 17.78° C | 70% | 976.8 hPa | 0 mm | - | 0 W/m² | - |
| 1777959806 | 17.78° C | 70% | 977 hPa | 0 mm | - | 0 W/m² | - |
| 1777959504 | 17.78° C | 69% | 976.9 hPa | 0 mm | - | 0 W/m² | - |
| 1777959200 | 17.78° C | 70% | 977.1 hPa | 0 mm | - | 0 W/m² | - |
| 1777958897 | 17.22° C | 70% | 977 hPa | 0 mm | - | 0 W/m² | - |
| 1777958594 | 17.22° C | 70% | 977.1 hPa | 0 mm | - | 0 W/m² | - |
| 1777958291 | 17.78° C | 69% | 977.3 hPa | 0 mm | - | 0 W/m² | - |
| 1777957989 | 17.78° C | 69% | 977.1 hPa | 0 mm | - | 0 W/m² | - |
| 1777957686 | 17.22° C | 69% | 977.2 hPa | 0 mm | - | 0 W/m² | - |
| 1777957385 | 17.22° C | 70% | 977.1 hPa | 0 mm | - | 0 W/m² | - |
| 1777957080 | 17.22° C | 70% | 977.3 hPa | 0 mm | - | 0 W/m² | - |
| 1777956778 | 17.78° C | 69% | 977.2 hPa | 0 mm | - | 0 W/m² | - |
* Rain latest hour (hover to see other rain measurements)
** Current wind speed in m/s (hover to see current wind gust speed)